Time;durP1;ratioP1;P1;durP2;ratioP2;P2;SDS_P1;SDS_P2;PMS_P1;PMS_P2;Temp;Humidity;BMP_temperature;BMP_pressure;BME280_temperature;BME280_humidity;BME280_pressure;Samples;Min_cycle;Max_cycle;Signal;HPM_P1;HPM_P2
2022/02/19 00:01:34;;;;;;;2.95;2.85;;;;;;;3.62;65.25;99920.28;6022166;23;20058;-64
2022/02/19 00:04:01;;;;;;;2.90;2.80;;;;;;;5.14;65.83;100132.81;5991082;23;20327;-64
2022/02/19 00:06:27;;;;;;;3.10;3.00;;;;;;;4.53;65.32;100034.63;6016992;23;20028;-64
2022/02/19 00:08:54;;;;;;;4.13;3.92;;;;;;;5.00;65.57;100133.34;6019431;23;20218;-65
2022/02/19 00:11:20;;;;;;;3.10;3.00;;;;;;;5.15;65.50;100138.84;6008902;23;20029;-65
2022/02/19 00:13:47;;;;;;;4.60;4.40;;;;;;;4.77;65.36;100071.84;6021943;23;20040;-65
2022/02/19 00:16:13;;;;;;;3.10;3.00;;;;;;;4.78;66.21;100070.06;6026388;23;20039;-64
2022/02/19 00:18:39;;;;;;;3.97;3.83;;;;;;;5.26;66.37;100146.25;6019728;23;20054;-64
2022/02/19 00:21:06;;;;;;;3.00;2.90;;;;;;;5.28;64.54;100141.84;5991033;23;20120;-64
2022/02/19 00:23:32;;;;;;;3.00;2.90;;;;;;;5.23;66.32;100167.19;6024805;23;20026;-65
2022/02/19 00:25:59;;;;;;;3.10;3.00;;;;;;;5.16;66.78;100156.16;5998779;23;20248;-65
2022/02/19 00:28:26;;;;;;;3.25;3.15;;;;;;;5.00;67.12;100148.09;6016081;23;20093;-64
2022/02/19 00:30:52;;;;;;;4.70;4.50;;;;;;;4.75;67.59;100111.78;5999827;23;20022;-64
2022/02/19 00:33:19;;;;;;;3.17;3.08;;;;;;;4.95;68.12;100148.28;6029186;23;20031;-65
2022/02/19 00:35:47;;;;;;;4.65;4.45;;;;;;;5.02;68.77;100155.84;6007946;23;20167;-65
2022/02/19 00:38:17;;;;;;;3.20;3.10;;;;;;;4.98;68.33;100160.31;6028687;23;20105;-65
2022/02/19 00:40:44;;;;;;;4.75;4.55;;;;;;;4.25;68.85;100065.13;6034704;23;20058;-65
2022/02/19 00:43:11;;;;;;;2.92;2.83;;;;;;;4.90;68.56;100171.00;6042147;23;20054;-65
2022/02/19 00:45:37;;;;;;;3.00;2.90;;;;;;;4.44;69.40;100080.91;6018971;23;20033;-65
2022/02/19 00:48:04;;;;;;;3.00;2.90;;;;;;;4.76;67.93;100157.66;6031879;23;20791;-65
2022/02/19 00:50:31;;;;;;;3.10;3.00;;;;;;;4.79;67.75;100160.13;6021043;23;20021;-66
2022/02/19 00:52:57;;;;;;;3.10;3.00;;;;;;;4.89;68.17;100177.13;5995751;23;20058;-65
2022/02/19 00:55:24;;;;;;;3.03;2.92;;;;;;;4.68;67.15;100131.97;6044705;23;20102;-65
2022/02/19 00:57:50;;;;;;;4.72;4.53;;;;;;;5.00;67.15;100168.91;5987373;23;20697;-65
2022/02/19 01:00:17;;;;;;;3.28;3.17;;;;;;;5.06;67.13;100193.84;5992124;23;20078;-65
2022/02/19 01:02:44;;;;;;;4.57;4.38;;;;;;;5.12;65.53;100197.06;6040652;23;20030;-65
2022/02/19 01:05:10;;;;;;;2.90;2.80;;;;;;;5.12;65.57;100162.41;6027830;23;20025;-64
2022/02/19 01:07:37;;;;;;;3.28;3.17;;;;;;;5.12;65.91;100204.84;6039026;23;20050;-64
2022/02/19 01:10:07;;;;;;;3.00;2.90;;;;;;;4.76;66.22;100147.28;6035560;23;20019;-65
2022/02/19 01:12:34;;;;;;;3.00;2.90;;;;;;;5.15;66.82;100211.69;6008856;23;20554;-66
2022/02/19 01:15:01;;;;;;;3.20;3.10;;;;;;;4.73;67.04;100171.63;6035867;23;20075;-66
2022/02/19 01:17:28;;;;;;;2.95;2.85;;;;;;;5.16;67.55;100214.22;6028875;23;20027;-66
2022/02/19 01:19:54;;;;;;;3.20;3.10;;;;;;;4.91;67.07;100188.31;6036310;23;20022;-63
2022/02/19 01:22:21;;;;;;;3.30;3.20;;;;;;;5.12;66.89;100225.66;5997175;23;20017;-64
2022/02/19 01:24:47;;;;;;;3.78;3.67;;;;;;;5.02;67.98;100219.09;5987939;23;20062;-64
2022/02/19 01:27:14;;;;;;;3.05;2.95;;;;;;;5.03;67.57;100262.41;6027560;23;20031;-65
2022/02/19 01:29:41;;;;;;;4.47;4.28;;;;;;;5.08;67.78;100239.69;6000006;23;20026;-65
2022/02/19 01:32:07;;;;;;;4.18;3.92;;;;;;;4.85;67.75;100222.34;6032475;23;20049;-63
2022/02/19 01:34:34;;;;;;;2.92;2.83;;;;;;;5.03;68.89;100246.78;6025326;23;20019;-64
2022/02/19 01:37:00;;;;;;;2.90;2.80;;;;;;;4.95;69.98;100269.63;6000517;23;20286;-64
2022/02/19 01:39:29;;;;;;;3.10;3.00;;;;;;;4.88;70.35;100245.59;6005047;23;20049;-64
2022/02/19 01:41:55;;;;;;;4.28;4.07;;;;;;;4.85;69.42;100257.88;6040970;23;20207;-65
2022/02/19 01:44:33;;;;;;;3.03;2.92;;;;;;;4.84;70.20;100263.97;6040185;23;20006;-65
2022/02/19 01:47:00;;;;;;;3.05;2.95;;;;;;;4.81;70.42;100277.91;6012936;23;20027;-63
2022/02/19 01:49:26;;;;;;;3.05;2.95;;;;;;;4.79;69.57;100264.13;6037616;23;20216;-64
2022/02/19 01:51:52;;;;;;;4.45;4.25;;;;;;;4.73;70.08;100260.00;6021714;23;20038;-64
2022/02/19 01:54:19;;;;;;;3.30;3.20;;;;;;;4.64;70.15;100265.53;6006424;23;20098;-64
2022/02/19 01:56:48;;;;;;;4.75;4.55;;;;;;;4.25;70.63;100231.34;6013865;23;20015;-65
2022/02/19 01:59:15;;;;;;;3.00;2.90;;;;;;;3.74;70.93;100157.75;6024181;23;20030;-64
2022/02/19 02:01:42;;;;;;;4.60;4.40;;;;;;;3.13;68.72;100036.09;6029775;23;20039;-64
2022/02/19 02:04:08;;;;;;;3.10;3.00;;;;;;;4.59;66.38;100272.63;5993853;23;20057;-64
2022/02/19 02:06:35;;;;;;;2.92;2.83;;;;;;;4.62;65.25;100288.13;6043918;23;20087;-64
2022/02/19 02:09:02;;;;;;;3.13;3.03;;;;;;;3.89;65.98;100185.78;6022521;23;20051;-67
2022/02/19 02:11:31;;;;;;;3.17;3.08;;;;;;;4.55;65.76;100305.69;5973307;23;20019;-63
2022/02/19 02:13:57;;;;;;;3.20;3.10;;;;;;;4.66;61.70;100314.84;6025294;23;20276;-64
2022/02/19 02:16:33;;;;;;;3.10;3.00;;;;;;;4.13;59.15;100210.09;5997507;23;20610;-64
2022/02/19 02:19:00;;;;;;;2.97;2.88;;;;;;;4.69;57.92;100317.34;6002662;23;20043;-64
2022/02/19 02:21:26;;;;;;;3.00;2.90;;;;;;;4.38;56.59;100249.06;6008785;23;20022;-64
2022/02/19 02:23:53;;;;;;;3.70;3.50;;;;;;;4.88;56.12;100321.00;6022038;23;20037;-64
2022/02/19 02:26:20;;;;;;;3.28;3.17;;;;;;;4.94;56.61;100338.16;6009258;23;20027;-65
2022/02/19 02:28:46;;;;;;;5.50;5.10;;;;;;;4.36;57.69;100250.88;6023002;23;20051;-64
2022/02/19 02:31:13;;;;;;;2.97;2.88;;;;;;;3.69;55.58;100123.28;6023343;23;20082;-64
2022/02/19 02:33:41;;;;;;;3.38;3.28;;;;;;;4.93;56.87;100352.91;6033637;23;20038;-64
2022/02/19 02:36:08;;;;;;;3.20;3.10;;;;;;;4.91;56.64;100344.31;6028412;23;20409;-67
2022/02/19 02:38:34;;;;;;;3.00;2.90;;;;;;;4.85;57.91;100362.72;6001406;23;20021;-66
2022/02/19 02:41:01;;;;;;;3.40;3.28;;;;;;;4.89;56.92;100356.53;6011011;23;20066;-67
2022/02/19 02:43:29;;;;;;;3.38;3.28;;;;;;;5.00;57.05;100362.19;6005522;23;20018;-67
2022/02/19 02:45:56;;;;;;;3.92;3.78;;;;;;;4.97;57.01;100361.44;6027233;23;20015;-66
2022/02/19 02:48:24;;;;;;;3.40;3.30;;;;;;;4.98;55.44;100361.38;6031876;23;20030;-67
2022/02/19 02:50:52;;;;;;;4.55;4.35;;;;;;;4.62;56.19;100336.66;6033594;23;20490;-66
2022/02/19 02:53:38;;;;;;;3.40;3.28;;;;;;;4.95;58.31;100379.72;6028780;23;20029;-67
2022/02/19 02:56:05;;;;;;;2.80;2.70;;;;;;;4.80;59.87;100365.47;6031046;23;20083;-67
2022/02/19 02:58:31;;;;;;;3.20;3.10;;;;;;;4.88;59.21;100388.63;6007805;23;20223;-66
2022/02/19 03:00:58;;;;;;;3.00;2.90;;;;;;;4.87;59.78;100428.53;5995570;23;20030;-67
2022/02/19 03:03:24;;;;;;;3.10;3.00;;;;;;;4.97;57.71;100383.13;6013433;23;20054;-66
2022/02/19 03:05:51;;;;;;;4.45;4.25;;;;;;;4.97;57.68;100377.03;5996549;23;20098;-67
2022/02/19 03:08:17;;;;;;;3.00;2.90;;;;;;;4.77;59.03;100370.78;6027788;23;20029;-67
2022/02/19 03:10:44;;;;;;;7.65;5.43;;;;;;;4.83;59.01;100394.88;5996863;23;20050;-67
2022/02/19 03:13:10;;;;;;;2.90;2.80;;;;;;;4.72;58.64;100387.44;6033830;23;20014;-67
2022/02/19 03:15:37;;;;;;;3.10;3.00;;;;;;;4.70;57.58;100399.63;6019649;23;20179;-67
2022/02/19 03:18:05;;;;;;;3.10;3.00;;;;;;;4.61;58.89;100369.59;6001671;23;20495;-67
2022/02/19 03:20:33;;;;;;;3.22;3.13;;;;;;;4.85;58.33;100424.25;5991545;23;20011;-67
2022/02/19 03:23:00;;;;;;;3.63;3.42;;;;;;;4.85;58.51;100424.25;5957926;23;20524;-67
2022/02/19 03:25:27;;;;;;;3.20;3.10;;;;;;;4.80;57.51;100408.81;6027511;23;20037;-67
2022/02/19 03:27:54;;;;;;;4.50;4.30;;;;;;;4.54;56.90;100387.13;6010310;23;20011;-67
2022/02/19 03:30:21;;;;;;;3.42;3.22;;;;;;;4.73;56.13;100421.19;6002255;23;20056;-66
2022/02/19 03:32:48;;;;;;;4.75;4.55;;;;;;;4.57;56.95;100393.97;6001663;23;20326;-66
2022/02/19 03:35:15;;;;;;;2.90;2.80;;;;;;;4.73;56.23;100423.78;6001911;23;20022;-66
2022/02/19 03:37:42;;;;;;;4.63;4.43;;;;;;;4.46;57.37;100407.31;6026915;23;20067;-66
2022/02/19 03:40:10;;;;;;;3.00;2.90;;;;;;;4.40;57.89;100412.69;6001846;23;20030;-66
2022/02/19 03:42:39;;;;;;;3.17;3.08;;;;;;;4.74;58.39;100469.66;6028177;23;20070;-67
2022/02/19 03:45:08;;;;;;;2.90;2.80;;;;;;;4.32;57.80;100418.13;6034496;23;20018;-65
2022/02/19 03:47:36;;;;;;;2.90;2.80;;;;;;;4.43;58.76;100432.53;6041600;23;20041;-67
2022/02/19 03:50:05;;;;;;;2.90;2.80;;;;;;;3.29;58.30;100254.28;6026955;23;20671;-67
2022/02/19 03:52:33;;;;;;;3.08;2.97;;;;;;;4.78;59.42;100514.63;6024040;23;20093;-68
2022/02/19 03:54:59;;;;;;;3.00;2.90;;;;;;;4.37;58.10;100443.97;5995360;23;20091;-67
2022/02/19 03:57:26;;;;;;;3.20;3.10;;;;;;;4.78;59.53;100515.47;6028777;23;20030;-68
2022/02/19 03:59:53;;;;;;;5.63;5.28;;;;;;;4.76;59.95;100524.22;6009513;23;20639;-67
2022/02/19 04:02:19;;;;;;;3.90;3.70;;;;;;;4.69;59.91;100515.75;5995759;23;20024;-68
2022/02/19 04:04:45;;;;;;;4.65;4.45;;;;;;;4.72;59.31;100528.66;6022160;23;20024;-67
2022/02/19 04:07:12;;;;;;;3.17;3.08;;;;;;;4.68;60.00;100532.25;6020057;23;20023;-66
2022/02/19 04:09:39;;;;;;;3.83;3.67;;;;;;;4.64;60.70;100538.44;5979724;23;20018;-67
2022/02/19 04:12:06;;;;;;;3.10;3.00;;;;;;;4.44;60.65;100526.03;6021691;23;20530;-67
2022/02/19 04:14:32;;;;;;;3.45;3.25;;;;;;;4.48;60.92;100550.19;5999042;23;20110;-70
2022/02/19 04:16:59;;;;;;;3.60;3.40;;;;;;;4.25;61.01;100494.56;6025752;23;20104;-66
2022/02/19 04:19:25;;;;;;;3.20;3.10;;;;;;;4.52;60.27;100563.03;5997490;23;20511;-67
2022/02/19 04:21:52;;;;;;;5.57;5.28;;;;;;;4.40;61.10;100550.41;6043382;23;20011;-66
2022/02/19 04:24:18;;;;;;;3.42;3.30;;;;;;;4.51;60.50;100581.25;6020454;23;20046;-66
2022/02/19 04:26:45;;;;;;;5.35;5.05;;;;;;;4.44;62.05;100587.53;5990939;23;20033;-65
2022/02/19 04:29:11;;;;;;;2.90;2.80;;;;;;;4.49;61.01;100594.31;6023489;23;20657;-66
2022/02/19 04:31:39;;;;;;;3.33;3.20;;;;;;;4.12;60.55;100521.78;5992570;23;20021;-65
2022/02/19 04:34:05;;;;;;;2.90;2.80;;;;;;;4.46;61.17;100602.19;6039254;23;20081;-66
2022/02/19 04:36:32;;;;;;;3.10;3.00;;;;;;;4.44;62.04;100606.59;5993102;23;20041;-66
2022/02/19 04:38:58;;;;;;;3.25;3.15;;;;;;;4.44;61.22;100610.94;6020875;23;20018;-67
2022/02/19 04:41:25;;;;;;;3.30;3.20;;;;;;;4.45;62.53;100612.63;6033562;23;20011;-67
2022/02/19 04:43:51;;;;;;;4.70;4.50;;;;;;;4.17;61.70;100559.72;6025942;23;20554;-67
2022/02/19 04:46:18;;;;;;;3.15;3.05;;;;;;;4.06;62.33;100558.31;6033873;23;20039;-67
2022/02/19 04:48:44;;;;;;;4.43;4.22;;;;;;;4.41;62.76;100635.25;6009365;23;20031;-67
2022/02/19 04:51:10;;;;;;;2.88;2.78;;;;;;;4.11;62.60;100593.66;6029954;23;20085;-67
2022/02/19 04:53:37;;;;;;;3.15;3.05;;;;;;;4.08;63.41;100611.03;6030290;23;20644;-68
2022/02/19 04:56:03;;;;;;;3.00;2.90;;;;;;;3.99;62.69;100609.56;5997840;23;20038;-66
2022/02/19 04:58:30;;;;;;;3.00;2.90;;;;;;;4.25;63.59;100653.00;6031231;23;20015;-67
2022/02/19 05:00:56;;;;;;;3.30;3.20;;;;;;;4.16;63.79;100648.91;6021481;23;20328;-66
2022/02/19 05:03:23;;;;;;;3.10;2.95;;;;;;;3.88;63.96;100611.56;6027623;23;20441;-67
2022/02/19 05:05:49;;;;;;;4.57;4.38;;;;;;;4.07;64.19;100640.50;6005173;23;20654;-66
2022/02/19 05:08:15;;;;;;;3.00;2.90;;;;;;;4.24;63.71;100661.69;6036864;23;20038;-67
2022/02/19 05:10:42;;;;;;;4.70;4.50;;;;;;;4.30;62.73;100674.50;6003327;23;20027;-67
2022/02/19 05:13:08;;;;;;;2.80;2.70;;;;;;;4.22;63.74;100662.63;6047891;23;20105;-68
2022/02/19 05:15:35;;;;;;;3.20;3.10;;;;;;;4.16;63.80;100681.81;6010229;23;20110;-68
2022/02/19 05:18:05;;;;;;;2.90;2.80;;;;;;;4.08;64.21;100687.19;6035156;23;20025;-67
2022/02/19 05:20:31;;;;;;;2.88;2.78;;;;;;;4.14;64.00;100681.00;6020593;23;20086;-66
2022/02/19 05:22:58;;;;;;;3.10;3.00;;;;;;;3.80;62.88;100629.94;5969110;23;20023;-66
2022/02/19 05:25:25;;;;;;;3.00;2.90;;;;;;;4.07;64.21;100675.13;6029564;23;20487;-66
2022/02/19 05:27:51;;;;;;;4.72;4.53;;;;;;;3.83;63.54;100668.81;6032845;23;20033;-67
2022/02/19 05:30:17;;;;;;;3.10;3.00;;;;;;;3.96;64.39;100698.75;5993450;23;20095;-67
2022/02/19 05:32:44;;;;;;;4.53;4.32;;;;;;;3.98;64.42;100696.97;6036846;23;20033;-66
2022/02/19 05:35:10;;;;;;;3.00;2.90;;;;;;;3.65;63.78;100643.28;6019212;23;20034;-67
2022/02/19 05:37:37;;;;;;;2.97;2.88;;;;;;;4.05;64.15;100704.59;6031170;23;20038;-67
2022/02/19 05:40:05;;;;;;;3.00;2.90;;;;;;;3.93;64.06;100714.41;6033498;23;20109;-67
2022/02/19 05:42:31;;;;;;;2.80;2.70;;;;;;;3.69;63.75;100671.75;6005702;23;20010;-67
2022/02/19 05:44:58;;;;;;;2.90;2.80;;;;;;;3.90;63.85;100706.69;5997465;23;20038;-66
2022/02/19 05:47:24;;;;;;;3.08;2.97;;;;;;;3.72;64.00;100683.78;6002419;23;20090;-66
2022/02/19 05:49:51;;;;;;;5.05;4.85;;;;;;;3.93;63.73;100722.22;6018372;23;20047;-66
2022/02/19 05:52:17;;;;;;;3.30;3.20;;;;;;;3.85;63.96;100723.25;6031965;23;20487;-67
2022/02/19 05:54:45;;;;;;;4.47;4.28;;;;;;;3.45;64.67;100670.56;6017553;23;20023;-66
2022/02/19 05:57:12;;;;;;;2.88;2.78;;;;;;;3.72;65.13;100720.13;6027574;23;20049;-66
2022/02/19 05:59:38;;;;;;;3.00;2.90;;;;;;;3.71;64.80;100713.19;6010260;23;20022;-68
2022/02/19 06:02:05;;;;;;;2.90;2.80;;;;;;;3.74;64.08;100724.38;5997753;23;20023;-66
2022/02/19 06:04:31;;;;;;;3.00;2.90;;;;;;;3.06;64.94;100621.31;6029067;23;20547;-66
2022/02/19 06:06:57;;;;;;;2.90;2.80;;;;;;;3.70;65.35;100727.94;6021132;23;20391;-66
2022/02/19 06:09:24;;;;;;;2.90;2.80;;;;;;;3.76;64.22;100739.91;6000917;23;20033;-66
2022/02/19 06:11:50;;;;;;;4.75;4.55;;;;;;;3.67;65.48;100745.31;6035267;23;20014;-66
2022/02/19 06:14:17;;;;;;;3.22;3.13;;;;;;;3.45;64.90;100719.88;6030155;23;20460;-67
2022/02/19 06:16:43;;;;;;;4.32;4.13;;;;;;;3.62;64.28;100754.97;6028622;23;20159;-66
2022/02/19 06:19:09;;;;;;;2.83;2.72;;;;;;;3.25;64.66;100704.75;6026400;23;20106;-67
2022/02/19 06:21:36;;;;;;;3.10;3.00;;;;;;;3.52;65.78;100770.72;5999133;23;20011;-66
2022/02/19 06:24:02;;;;;;;2.80;2.70;;;;;;;3.16;65.30;100717.91;6034496;23;20539;-69
2022/02/19 06:26:29;;;;;;;2.90;2.80;;;;;;;3.47;66.21;100763.91;6020726;23;20437;-68
2022/02/19 06:28:55;;;;;;;4.75;4.55;;;;;;;3.48;65.83;100778.63;5988834;23;20851;-66
2022/02/19 06:31:22;;;;;;;2.90;2.80;;;;;;;3.13;66.23;100721.41;6023748;23;20279;-66
2022/02/19 06:33:48;;;;;;;4.72;4.53;;;;;;;3.43;65.80;100749.31;6006492;23;20357;-66
2022/02/19 06:36:15;;;;;;;3.00;2.90;;;;;;;2.89;66.93;100696.00;6016735;23;20023;-64
2022/02/19 06:38:41;;;;;;;3.92;3.75;;;;;;;3.35;67.24;100788.41;5997969;23;20016;-63
2022/02/19 06:41:10;;;;;;;2.97;2.88;;;;;;;3.37;67.90;100802.19;6028489;23;20023;-64
2022/02/19 06:43:36;;;;;;;2.75;2.65;;;;;;;3.30;67.91;100810.97;6008072;23;20266;-65
2022/02/19 06:46:04;;;;;;;2.90;2.80;;;;;;;3.40;68.22;100809.91;6043493;23;20018;-65
2022/02/19 06:48:30;;;;;;;2.90;2.80;;;;;;;3.43;67.64;100819.34;6033200;23;20350;-66
2022/02/19 06:50:58;;;;;;;4.03;3.83;;;;;;;3.48;67.74;100820.13;6042888;23;20362;-67
2022/02/19 06:53:25;;;;;;;2.90;2.80;;;;;;;3.20;67.43;100790.41;6005422;23;20035;-65
2022/02/19 06:55:52;;;;;;;4.93;4.72;;;;;;;3.47;68.41;100808.91;5986227;23;20521;-65
2022/02/19 06:58:19;;;;;;;3.00;2.90;;;;;;;2.69;67.96;100686.06;6012003;23;20050;-65
2022/02/19 07:00:47;;;;;;;3.63;3.53;;;;;;;3.42;68.25;100862.59;5988987;23;20117;-65
2022/02/19 07:03:13;;;;;;;3.10;3.00;;;;;;;3.39;68.99;100840.19;6026329;23;20027;-67
2022/02/19 07:05:40;;;;;;;3.08;2.97;;;;;;;3.39;68.92;100853.16;5970465;23;20053;-65
2022/02/19 07:08:06;;;;;;;2.80;2.70;;;;;;;3.34;68.93;100838.56;6019668;23;20070;-67
2022/02/19 07:10:32;;;;;;;2.97;2.88;;;;;;;3.48;69.08;100849.50;5999929;23;20192;-65
2022/02/19 07:12:59;;;;;;;2.80;2.70;;;;;;;3.22;68.61;100834.47;6019617;23;20042;-67
2022/02/19 07:15:25;;;;;;;3.00;2.90;;;;;;;3.44;68.88;100849.63;5971110;23;20035;-64
2022/02/19 07:17:53;;;;;;;4.75;4.55;;;;;;;3.38;69.30;100830.69;6002729;23;20026;-64
2022/02/19 07:20:22;;;;;;;2.80;2.70;;;;;;;3.59;68.50;100850.16;6008520;23;20033;-67
2022/02/19 07:22:49;;;;;;;4.75;4.55;;;;;;;3.63;68.96;100843.16;6024365;23;20027;-67
2022/02/19 07:25:17;;;;;;;5.05;4.85;;;;;;;3.66;68.90;100865.59;6020921;23;20025;-67
2022/02/19 07:27:45;;;;;;;5.07;4.78;;;;;;;3.62;69.38;100884.72;5992518;23;20037;-67
2022/02/19 07:30:14;;;;;;;3.05;2.95;;;;;;;3.59;68.66;100885.63;6031428;23;20091;-65
2022/02/19 07:32:41;;;;;;;4.20;4.03;;;;;;;3.71;67.94;100911.34;5996039;23;20059;-66
2022/02/19 07:35:08;;;;;;;3.60;3.35;;;;;;;3.18;68.96;100807.72;6027509;23;20030;-67
2022/02/19 07:37:35;;;;;;;3.08;2.97;;;;;;;3.37;68.92;100839.38;5991461;23;20686;-64
2022/02/19 07:40:07;;;;;;;3.00;2.90;;;;;;;3.85;68.10;100916.25;6010551;23;20007;-66
2022/02/19 07:42:34;;;;;;;3.57;3.47;;;;;;;3.87;67.74;100914.47;6011187;23;20015;-66
2022/02/19 07:45:01;;;;;;;3.03;2.92;;;;;;;3.84;67.62;100924.91;6027123;23;20368;-67
2022/02/19 07:47:30;;;;;;;3.15;3.05;;;;;;;3.39;66.88;100822.03;6030698;23;20481;-67
2022/02/19 07:58:19;;;;;;;3.35;3.25;;;;;;;4.06;66.55;100935.69;6024737;23;20026;-67
2022/02/19 08:00:51;;;;;;;4.43;4.22;;;;;;;3.65;66.36;100861.28;6017819;23;20511;-67
2022/02/19 08:03:20;;;;;;;3.20;3.10;;;;;;;3.57;65.94;100836.34;6029258;23;20151;-67
2022/02/19 08:05:48;;;;;;;4.35;4.15;;;;;;;4.25;65.87;100937.88;6016710;23;20026;-67
2022/02/19 08:08:14;;;;;;;3.30;3.20;;;;;;;3.89;66.08;100883.25;5991387;23;20024;-67
2022/02/19 08:10:42;;;;;;;3.95;3.80;;;;;;;4.28;66.44;100945.63;5996516;23;20027;-67
2022/02/19 08:13:09;;;;;;;2.80;2.70;;;;;;;4.46;64.89;100958.19;5991306;23;20023;-67
2022/02/19 08:15:36;;;;;;;2.95;2.85;;;;;;;4.48;64.26;100959.03;6022141;23;20054;-68
2022/02/19 08:18:04;;;;;;;3.10;3.00;;;;;;;3.96;65.07;100859.72;5993982;23;20502;-67
2022/02/19 08:20:32;;;;;;;3.00;2.90;;;;;;;4.44;64.80;100940.94;6020608;23;20019;-66
2022/02/19 08:22:59;;;;;;;3.20;3.10;;;;;;;4.31;64.03;100899.66;5993349;23;20368;-67
2022/02/19 08:25:25;;;;;;;3.30;3.20;;;;;;;4.78;63.07;100975.66;5987457;23;20028;-66
2022/02/19 08:27:52;;;;;;;4.95;4.75;;;;;;;4.80;63.61;100966.06;5985789;23;20059;-66
2022/02/19 08:30:20;;;;;;;3.30;3.20;;;;;;;4.82;63.46;100986.00;6021498;23;20019;-67
2022/02/19 08:32:46;;;;;;;4.80;4.60;;;;;;;4.77;64.46;100960.06;6020806;23;20109;-67
2022/02/19 08:35:13;;;;;;;3.28;3.17;;;;;;;4.93;64.27;100979.66;6019130;23;20046;-67
2022/02/19 08:37:40;;;;;;;3.42;3.33;;;;;;;5.00;64.17;100980.34;5987663;23;20030;-67
2022/02/19 08:40:14;;;;;;;3.22;3.13;;;;;;;4.88;63.21;100965.88;6014965;23;20015;-67
2022/02/19 08:42:42;;;;;;;3.95;3.78;;;;;;;5.05;63.11;100994.09;5992195;23;20266;-67
2022/02/19 08:45:09;;;;;;;3.15;3.05;;;;;;;5.11;63.14;101003.47;5988636;23;20449;-67
2022/02/19 08:47:39;;;;;;;3.00;2.90;;;;;;;5.17;63.53;100999.00;5993349;23;20030;-67
2022/02/19 08:50:06;;;;;;;3.38;3.28;;;;;;;5.15;62.62;100977.38;5984271;23;20026;-66
2022/02/19 08:52:33;;;;;;;3.03;2.92;;;;;;;5.21;63.52;101015.34;5978793;23;20027;-67
2022/02/19 08:55:01;;;;;;;4.18;3.97;;;;;;;5.33;62.42;101019.41;6001785;23;20504;-66
2022/02/19 08:57:27;;;;;;;3.08;2.97;;;;;;;5.34;62.63;101005.50;5997414;23;20672;-67
2022/02/19 08:59:53;;;;;;;4.57;4.38;;;;;;;5.33;63.34;101009.00;6039290;23;20038;-66
2022/02/19 09:02:20;;;;;;;3.35;3.25;;;;;;;4.93;62.42;100918.94;6021343;23;20274;-67
2022/02/19 09:04:50;;;;;;;5.15;4.95;;;;;;;5.48;62.00;101011.22;5991215;23;20027;-68
2022/02/19 09:07:17;;;;;;;3.10;3.00;;;;;;;5.00;62.27;100905.75;6026725;23;20030;-67
2022/02/19 09:09:44;;;;;;;17.08;16.27;;;;;;;4.35;61.56;100825.94;5934813;23;20282;-69
2022/02/19 09:12:10;;;;;;;3.00;2.90;;;;;;;5.60;61.17;101020.44;5950966;23;20274;-68
2022/02/19 09:14:37;;;;;;;3.08;2.97;;;;;;;5.66;62.96;101028.09;5990597;23;20082;-69
2022/02/19 09:17:04;;;;;;;3.13;3.03;;;;;;;5.73;61.92;101032.25;6012989;23;20667;-65
2022/02/19 09:19:30;;;;;;;2.90;2.80;;;;;;;5.76;60.62;101034.78;5999718;23;20378;-67
2022/02/19 09:21:58;;;;;;;4.03;3.83;;;;;;;5.54;60.81;100963.34;6027420;23;20114;-66
2022/02/19 09:24:24;;;;;;;3.00;2.90;;;;;;;5.75;60.29;101027.88;6033414;23;20243;-68
2022/02/19 09:26:50;;;;;;;4.55;4.35;;;;;;;5.97;61.45;101027.28;5998654;23;20027;-66
2022/02/19 09:29:17;;;;;;;3.05;2.95;;;;;;;5.73;59.68;100994.94;6019848;23;20093;-66
2022/02/19 09:31:43;;;;;;;4.35;4.15;;;;;;;6.09;60.26;101037.38;5974246;23;20246;-66
2022/02/19 09:34:10;;;;;;;3.17;3.08;;;;;;;6.26;60.09;101034.28;6030224;23;20014;-66
2022/02/19 09:36:37;;;;;;;2.90;2.80;;;;;;;6.37;60.67;101024.41;5997035;23;20102;-67
2022/02/19 09:39:06;;;;;;;3.17;3.08;;;;;;;6.09;59.04;100994.81;5978710;23;20018;-67
2022/02/19 09:41:33;;;;;;;3.10;3.00;;;;;;;6.30;59.15;101040.28;6028617;23;20054;-67
2022/02/19 09:44:03;;;;;;;3.10;3.00;;;;;;;6.21;58.49;100978.84;6027265;23;20476;-65
2022/02/19 09:46:32;;;;;;;3.13;3.03;;;;;;;6.59;58.38;101010.72;6018855;23;20011;-66
2022/02/19 09:49:01;;;;;;;4.32;4.13;;;;;;;5.88;57.28;100907.72;5992032;23;20034;-74
2022/02/19 09:51:28;;;;;;;3.88;3.67;;;;;;;6.16;58.66;101012.84;5993199;23;20022;-72
2022/02/19 09:53:54;;;;;;;4.95;4.75;;;;;;;6.31;57.73;101037.59;5989089;23;20481;-71
2022/02/19 09:56:24;;;;;;;3.30;3.20;;;;;;;6.25;57.20;101045.59;5994670;23;20019;-72
2022/02/19 09:58:51;;;;;;;5.07;4.88;;;;;;;6.22;58.33;100990.97;5991812;23;20123;-70
2022/02/19 10:01:18;;;;;;;3.50;3.40;;;;;;;6.30;58.54;100957.72;6015795;23;20046;-74
2022/02/19 10:03:45;;;;;;;5.18;4.97;;;;;;;6.76;56.86;101029.31;5990063;23;20020;-73
2022/02/19 10:06:13;;;;;;;3.53;3.42;;;;;;;6.32;57.50;100916.81;5980641;23;20016;-70
2022/02/19 10:08:40;;;;;;;3.78;3.60;;;;;;;6.98;58.47;101050.38;5968386;23;20017;-70
2022/02/19 10:11:12;;;;;;;4.95;4.75;;;;;;;6.60;57.33;100999.41;6013471;23;20027;-69
2022/02/19 10:13:41;;;;;;;3.60;3.50;;;;;;;6.64;57.90;101001.00;6015942;23;20033;-69
2022/02/19 10:16:09;;;;;;;3.50;3.40;;;;;;;7.27;57.13;101055.56;6010732;23;20104;-70
2022/02/19 10:18:39;;;;;;;3.50;3.40;;;;;;;6.79;55.23;100989.22;6006432;23;20033;-70
2022/02/19 10:21:15;;;;;;;4.68;4.47;;;;;;;6.95;55.65;100985.22;5991225;23;20125;-70
2022/02/19 10:23:50;;;;;;;3.20;3.10;;;;;;;7.41;55.84;101053.34;6023968;23;20078;-71
2022/02/19 10:26:19;;;;;;;3.63;3.50;;;;;;;7.29;54.14;101022.41;6022448;23;20628;-71
2022/02/19 10:29:14;;;;;;;3.40;3.30;;;;;;;7.61;55.05;101051.81;6022765;23;20062;-70
2022/02/19 10:31:40;;;;;;;3.38;3.28;;;;;;;7.61;54.95;101063.13;6008038;23;20047;-71
2022/02/19 10:34:14;;;;;;;3.72;3.60;;;;;;;7.68;55.06;101055.94;5995975;23;20069;-70
2022/02/19 10:36:49;;;;;;;3.40;3.30;;;;;;;7.24;54.26;101024.34;6030312;23;20093;-70
2022/02/19 10:39:27;;;;;;;3.90;3.80;;;;;;;7.58;51.58;101065.84;5971245;23;21017;-70
2022/02/19 10:42:02;;;;;;;4.20;4.03;;;;;;;7.61;51.98;101076.16;6024264;23;20594;-70
2022/02/19 10:44:33;;;;;;;3.50;3.40;;;;;;;7.42;51.73;101057.66;6004652;23;20116;-68
2022/02/19 10:47:22;;;;;;;5.15;4.95;;;;;;;7.57;50.81;101069.34;5989640;23;20460;-71
2022/02/19 10:50:11;;;;;;;3.47;3.38;;;;;;;7.77;51.41;101073.91;5996168;23;20279;-68
2022/02/19 10:52:50;;;;;;;3.33;3.22;;;;;;;7.62;50.99;101041.31;6020056;23;20027;-68
2022/02/19 10:55:23;;;;;;;3.50;3.40;;;;;;;7.79;51.49;101069.47;5990120;23;20022;-68
2022/02/19 10:57:52;;;;;;;3.67;3.55;;;;;;;7.39;50.47;101008.16;6008534;23;20433;-69
2022/02/19 11:00:21;;;;;;;3.60;3.50;;;;;;;8.11;51.48;101080.56;5995131;23;20031;-68
2022/02/19 11:02:49;;;;;;;3.50;3.40;;;;;;;8.24;50.86;101092.28;6019372;23;20035;-68
2022/02/19 11:05:19;;;;;;;3.50;3.40;;;;;;;8.41;50.02;101075.13;6005670;23;20023;-68
2022/02/19 11:07:47;;;;;;;3.60;3.50;;;;;;;7.03;50.21;100864.94;5997388;23;20030;-68
2022/02/19 11:10:16;;;;;;;3.50;3.40;;;;;;;8.28;50.90;101067.72;5987640;23;20063;-67
2022/02/19 11:12:43;;;;;;;3.67;3.58;;;;;;;8.12;50.49;101069.22;5997268;23;20021;-68
2022/02/19 11:15:10;;;;;;;3.60;3.50;;;;;;;7.99;50.80;101043.47;6012170;23;20086;-67
2022/02/19 11:17:37;;;;;;;3.35;3.25;;;;;;;7.96;50.90;101014.84;5989355;23;20020;-67
2022/02/19 11:20:09;;;;;;;4.85;4.65;;;;;;;8.55;49.97;101051.94;5992205;23;20431;-68
2022/02/19 11:22:40;;;;;;;;;;;;;;;8.71;49.23;101055.66;6001568;23;20086;-67
2022/02/19 11:25:14;;;;;;;4.32;4.13;;;;;;;8.66;49.89;101062.00;6009536;23;20142;-68
2022/02/19 11:27:45;;;;;;;3.53;3.42;;;;;;;8.39;49.96;101022.88;6009335;23;20369;-67
2022/02/19 11:30:20;;;;;;;3.70;3.60;;;;;;;8.76;49.06;101045.91;6008171;23;20530;-68
2022/02/19 11:32:51;;;;;;;4.10;3.90;;;;;;;8.32;48.15;100983.03;5991747;23;20597;-70
2022/02/19 11:35:33;;;;;;;3.88;3.72;;;;;;;8.82;48.72;101060.50;6017369;23;20023;-68
2022/02/19 11:38:00;;;;;;;5.03;4.82;;;;;;;8.92;48.76;101054.00;6007887;23;20022;-69
2022/02/19 11:40:42;;;;;;;3.80;3.70;;;;;;;8.99;47.74;101065.06;5990629;23;20031;-68
2022/02/19 11:43:46;;;;;;;4.63;4.43;;;;;;;9.03;48.09;101066.66;6013983;23;20026;-69
2022/02/19 11:46:13;;;;;;;3.70;3.60;;;;;;;9.18;47.61;101071.28;5986510;23;20086;-69